createdAt,value
2018-10-21T00:00:21.503Z,4.83
2018-10-21T00:01:21.491Z,4.80
2018-10-21T00:02:21.495Z,4.79
2018-10-21T00:03:21.469Z,4.74
2018-10-21T00:04:21.460Z,4.74
2018-10-21T00:05:21.447Z,4.74
2018-10-21T00:06:21.440Z,4.75
2018-10-21T00:07:21.427Z,4.75
2018-10-21T00:08:21.414Z,4.74
2018-10-21T00:09:21.404Z,4.69
2018-10-21T00:10:21.394Z,4.69
2018-10-21T00:11:21.383Z,4.71
2018-10-21T00:12:21.372Z,4.72
2018-10-21T00:13:21.360Z,4.72
2018-10-21T00:14:21.351Z,4.72
2018-10-21T00:15:21.404Z,4.68
2018-10-21T00:16:21.331Z,4.68
2018-10-21T00:17:21.319Z,4.68
2018-10-21T00:18:21.308Z,4.67
2018-10-21T00:19:21.296Z,4.65
2018-10-21T00:20:21.286Z,4.64
2018-10-21T00:21:21.274Z,4.65
2018-10-21T00:22:21.263Z,4.67
2018-10-21T00:23:21.252Z,4.69
2018-10-21T00:24:21.242Z,4.72
2018-10-21T00:25:21.230Z,4.72
2018-10-21T00:26:21.219Z,4.71
2018-10-21T00:27:21.208Z,4.69
2018-10-21T00:28:21.199Z,4.65
2018-10-21T00:29:21.187Z,4.64
2018-10-21T00:30:21.176Z,4.64
2018-10-21T00:31:21.166Z,4.61
2018-10-21T00:32:21.155Z,4.64
2018-10-21T00:33:21.144Z,4.61
2018-10-21T00:34:21.134Z,4.61
2018-10-21T00:35:21.124Z,4.56
2018-10-21T00:36:21.111Z,4.53
2018-10-21T00:37:21.103Z,4.49
2018-10-21T00:38:21.091Z,4.47
2018-10-21T00:39:21.078Z,4.46
2018-10-21T00:40:21.070Z,4.50
2018-10-21T00:41:21.056Z,4.51
2018-10-21T00:42:21.046Z,4.53
2018-10-21T00:43:21.037Z,4.51
2018-10-21T00:44:21.030Z,4.50
2018-10-21T00:45:21.013Z,4.49
2018-10-21T00:46:21.003Z,4.50
2018-10-21T00:47:20.994Z,4.49
2018-10-21T00:48:20.982Z,4.49
2018-10-21T00:49:20.971Z,4.47
2018-10-21T00:50:20.960Z,4.44
2018-10-21T00:51:20.949Z,4.44
2018-10-21T00:52:20.941Z,4.44
2018-10-21T00:53:20.929Z,4.43
2018-10-21T00:54:20.916Z,4.42
2018-10-21T00:55:20.907Z,4.39
2018-10-21T00:56:20.896Z,4.36
2018-10-21T00:57:20.884Z,4.35
2018-10-21T00:58:20.875Z,4.32
2018-10-21T00:59:20.864Z,4.31
2018-10-21T01:00:20.850Z,4.29
2018-10-21T01:01:20.841Z,4.29
2018-10-21T01:02:20.829Z,4.28
2018-10-21T01:03:20.820Z,4.28
2018-10-21T01:04:20.808Z,4.29
2018-10-21T01:05:20.797Z,4.28
2018-10-21T01:06:20.787Z,4.28
2018-10-21T01:07:20.779Z,4.29
2018-10-21T01:08:20.765Z,4.34
2018-10-21T01:09:20.755Z,4.34
2018-10-21T01:10:20.749Z,4.34
2018-10-21T01:11:20.737Z,4.31
2018-10-21T01:12:20.720Z,4.28
2018-10-21T01:13:20.712Z,4.25
2018-10-21T01:14:20.701Z,4.25
2018-10-21T01:15:20.691Z,4.24
2018-10-21T01:16:20.680Z,4.24
2018-10-21T01:17:20.669Z,4.26
2018-10-21T01:18:20.658Z,4.25
2018-10-21T01:19:20.648Z,4.25
2018-10-21T01:20:20.635Z,4.26
2018-10-21T01:21:20.624Z,4.28
2018-10-21T01:22:20.615Z,4.26
2018-10-21T01:23:20.602Z,4.29
2018-10-21T01:24:20.594Z,4.32
2018-10-21T01:25:20.582Z,4.29
2018-10-21T01:26:20.570Z,4.28
2018-10-21T01:27:20.563Z,4.25
2018-10-21T01:28:20.548Z,4.24
2018-10-21T01:29:20.538Z,4.20
2018-10-21T01:30:20.528Z,4.18
2018-10-21T01:31:20.515Z,4.20
2018-10-21T01:32:20.505Z,4.20
2018-10-21T01:33:20.495Z,4.20
2018-10-21T01:34:20.486Z,4.20
2018-10-21T01:35:20.473Z,4.18
2018-10-21T01:36:20.704Z,4.17
2018-10-21T01:37:20.467Z,4.17
2018-10-21T01:38:20.489Z,4.17
2018-10-21T01:39:20.432Z,4.16
2018-10-21T01:40:20.419Z,4.13
2018-10-21T01:41:20.407Z,4.11
2018-10-21T01:42:20.400Z,4.10
2018-10-21T01:43:20.488Z,4.07
2018-10-21T01:44:20.377Z,4.06
2018-10-21T01:45:20.370Z,4.03
2018-10-21T01:46:20.358Z,4.03
2018-10-21T01:47:20.344Z,3.99
2018-10-21T01:48:20.337Z,3.98
2018-10-21T01:49:20.322Z,3.94
2018-10-21T01:50:20.315Z,3.95
2018-10-21T01:51:20.305Z,3.94
2018-10-21T01:52:20.325Z,3.94
2018-10-21T01:53:20.283Z,3.95
2018-10-21T01:54:20.266Z,3.92
2018-10-21T01:55:20.258Z,3.92
2018-10-21T01:56:20.245Z,3.92
2018-10-21T01:57:20.243Z,3.94
2018-10-21T01:58:20.226Z,3.92
2018-10-21T01:59:20.216Z,3.92
2018-10-21T02:00:20.204Z,3.89
2018-10-21T02:01:20.194Z,3.88
2018-10-21T02:02:20.181Z,3.87
2018-10-21T02:03:20.172Z,3.85
2018-10-21T02:04:20.159Z,3.88
2018-10-21T02:05:20.148Z,3.89
2018-10-21T02:06:20.139Z,3.91
2018-10-21T02:07:20.127Z,3.89
2018-10-21T02:08:20.119Z,3.89
2018-10-21T02:09:20.107Z,3.83
2018-10-21T02:10:20.096Z,3.80
2018-10-21T02:11:20.082Z,3.79
2018-10-21T02:12:20.074Z,3.76
2018-10-21T02:13:20.062Z,3.74
2018-10-21T02:14:20.055Z,3.76
2018-10-21T02:15:20.041Z,3.83
2018-10-21T02:16:20.029Z,3.87
2018-10-21T02:17:20.021Z,3.87
2018-10-21T02:18:20.015Z,3.87
2018-10-21T02:19:19.998Z,3.89
2018-10-21T02:20:19.986Z,3.87
2018-10-21T02:21:19.977Z,3.81
2018-10-21T02:22:19.968Z,3.80
2018-10-21T02:23:19.956Z,3.81
2018-10-21T02:24:19.945Z,3.80
2018-10-21T02:25:19.935Z,3.83
2018-10-21T02:26:19.992Z,3.83
2018-10-21T02:27:19.943Z,3.80
2018-10-21T02:28:19.923Z,3.74
2018-10-21T02:29:19.891Z,3.70
2018-10-21T02:30:19.880Z,3.70
2018-10-21T02:31:19.867Z,3.71
2018-10-21T02:32:19.856Z,3.70
2018-10-21T02:33:19.919Z,3.71
2018-10-21T02:34:19.836Z,3.73
2018-10-21T02:35:19.827Z,3.73
2018-10-21T02:36:19.819Z,3.73
2018-10-21T02:37:19.807Z,3.70
2018-10-21T02:38:19.794Z,3.69
2018-10-21T02:39:19.796Z,3.67
2018-10-21T02:40:19.774Z,3.69
2018-10-21T02:41:19.762Z,3.71
2018-10-21T02:42:19.749Z,3.71
2018-10-21T02:43:19.740Z,3.74
2018-10-21T02:44:19.737Z,3.76
2018-10-21T02:45:19.811Z,3.80
2018-10-21T02:46:19.706Z,3.83
2018-10-21T02:47:19.696Z,3.80
2018-10-21T02:48:19.683Z,3.79
2018-10-21T02:49:19.675Z,3.76
2018-10-21T02:50:19.662Z,3.74
2018-10-21T02:51:19.713Z,3.71
2018-10-21T02:52:19.642Z,3.71
2018-10-21T02:53:19.635Z,3.70
2018-10-21T02:54:19.620Z,3.69
2018-10-21T02:55:19.609Z,3.67
2018-10-21T02:56:19.598Z,3.66
2018-10-21T02:57:19.630Z,3.66
2018-10-21T02:58:19.581Z,3.69
2018-10-21T02:59:19.565Z,3.70
2018-10-21T03:00:19.557Z,3.69
2018-10-21T03:01:19.549Z,3.69
2018-10-21T03:02:19.535Z,3.67
2018-10-21T03:03:19.524Z,3.66
2018-10-21T03:04:19.511Z,3.67
2018-10-21T03:05:19.501Z,3.67
2018-10-21T03:06:19.489Z,3.67
2018-10-21T03:07:19.479Z,3.67
2018-10-21T03:08:19.468Z,3.63
2018-10-21T03:09:19.523Z,3.66
2018-10-21T03:10:19.446Z,3.69
2018-10-21T03:11:19.434Z,3.69
2018-10-21T03:12:19.426Z,3.69
2018-10-21T03:13:19.417Z,3.71
2018-10-21T03:14:19.404Z,3.71
2018-10-21T03:15:19.394Z,3.71
2018-10-21T03:16:19.381Z,3.71
2018-10-21T03:17:19.371Z,3.70
2018-10-21T03:18:19.526Z,3.70
2018-10-21T03:19:19.351Z,3.69
2018-10-21T03:20:19.392Z,3.70
2018-10-21T03:21:19.433Z,3.71
2018-10-21T03:22:19.319Z,3.71
2018-10-21T03:23:19.307Z,3.70
2018-10-21T03:24:19.297Z,3.69
2018-10-21T03:25:19.287Z,3.67
2018-10-21T03:26:19.278Z,3.67
2018-10-21T03:27:19.377Z,3.67
2018-10-21T03:28:19.254Z,3.67
2018-10-21T03:29:19.242Z,3.67
2018-10-21T03:30:19.231Z,3.67
2018-10-21T03:31:19.224Z,3.71
2018-10-21T03:32:19.228Z,3.70
2018-10-21T03:33:19.579Z,3.69
2018-10-21T03:34:19.190Z,3.66
2018-10-21T03:35:19.177Z,3.61
2018-10-21T03:36:19.166Z,3.59
2018-10-21T03:37:19.157Z,3.61
2018-10-21T03:38:19.147Z,3.61
2018-10-21T03:39:19.137Z,3.61
2018-10-21T03:40:19.252Z,3.62
2018-10-21T03:41:19.114Z,3.61
2018-10-21T03:42:19.105Z,3.59
2018-10-21T03:43:19.097Z,3.59
2018-10-21T03:44:19.084Z,3.58
2018-10-21T03:45:19.075Z,3.55
2018-10-21T03:46:19.095Z,3.53
2018-10-21T03:47:19.048Z,3.53
2018-10-21T03:48:19.047Z,3.51
2018-10-21T03:49:19.027Z,3.49
2018-10-21T03:50:19.016Z,3.45
2018-10-21T03:51:19.008Z,3.48
2018-10-21T03:52:19.102Z,3.45
2018-10-21T03:53:18.983Z,3.48
2018-10-21T03:54:18.978Z,3.43
2018-10-21T03:55:18.960Z,3.40
2018-10-21T03:56:18.953Z,3.43
2018-10-21T03:57:18.944Z,3.43
2018-10-21T03:58:18.929Z,3.41
2018-10-21T03:59:18.917Z,3.41
2018-10-21T04:00:18.909Z,3.38
2018-10-21T04:01:18.898Z,3.37
2018-10-21T04:02:18.891Z,3.34
2018-10-21T04:03:18.873Z,3.31
2018-10-21T04:04:18.949Z,3.30
2018-10-21T04:05:18.859Z,3.28
2018-10-21T04:06:18.843Z,3.30
2018-10-21T04:07:18.835Z,3.26
2018-10-21T04:08:18.822Z,3.25
2018-10-21T04:09:18.809Z,3.25
2018-10-21T04:10:18.800Z,3.28
2018-10-21T04:11:18.790Z,3.26
2018-10-21T04:12:18.780Z,3.23
2018-10-21T04:13:18.769Z,3.20
2018-10-21T04:14:18.756Z,3.17
2018-10-21T04:15:18.750Z,3.16
2018-10-21T04:16:18.850Z,3.17
2018-10-21T04:17:18.726Z,3.22
2018-10-21T04:18:18.712Z,3.22
2018-10-21T04:19:18.703Z,3.25
2018-10-21T04:20:18.692Z,3.23
2018-10-21T04:21:18.683Z,3.22
2018-10-21T04:22:18.673Z,3.23
2018-10-21T04:23:18.707Z,3.20
2018-10-21T04:24:18.649Z,3.20
2018-10-21T04:25:18.638Z,3.22
2018-10-21T04:26:18.635Z,3.20
2018-10-21T04:27:18.617Z,3.19
2018-10-21T04:28:18.722Z,3.20
2018-10-21T04:29:18.594Z,3.23
2018-10-21T04:30:18.584Z,3.19
2018-10-21T04:31:18.575Z,3.22
2018-10-21T04:32:18.562Z,3.19
2018-10-21T04:33:18.554Z,3.16
2018-10-21T04:34:18.541Z,3.16
2018-10-21T04:35:18.556Z,3.12
2018-10-21T04:36:18.521Z,3.08
2018-10-21T04:37:18.509Z,3.04
2018-10-21T04:38:18.498Z,3.01
2018-10-21T04:39:18.487Z,3.01
2018-10-21T04:40:18.510Z,3.01
2018-10-21T04:41:18.468Z,3.01
2018-10-21T04:42:18.457Z,2.99
2018-10-21T04:43:18.446Z,3.01
2018-10-21T04:44:18.437Z,3.04
2018-10-21T04:45:18.425Z,3.04
2018-10-21T04:46:18.414Z,3.05
2018-10-21T04:47:18.403Z,3.04
2018-10-21T04:48:18.390Z,2.99
2018-10-21T04:49:18.381Z,2.98
2018-10-21T04:50:18.369Z,2.95
2018-10-21T04:51:18.359Z,2.95
2018-10-21T04:52:18.375Z,2.95
2018-10-21T04:53:18.338Z,2.97
2018-10-21T04:54:18.326Z,2.98
2018-10-21T04:55:18.316Z,2.98
2018-10-21T04:56:18.304Z,2.97
2018-10-21T04:57:18.294Z,2.92
2018-10-21T04:58:18.284Z,2.92
2018-10-21T04:59:18.273Z,2.94
2018-10-21T05:00:18.260Z,2.97
2018-10-21T05:01:18.252Z,2.94
2018-10-21T05:02:18.240Z,2.90
2018-10-21T05:03:18.227Z,2.90
2018-10-21T05:04:18.220Z,2.84
2018-10-21T05:05:18.208Z,2.83
2018-10-21T05:06:18.196Z,2.87
2018-10-21T05:07:18.198Z,2.92
2018-10-21T05:08:18.177Z,2.87
2018-10-21T05:09:18.164Z,2.87
2018-10-21T05:10:18.256Z,2.86
2018-10-21T05:11:18.145Z,2.83
2018-10-21T05:12:18.132Z,2.80
2018-10-21T05:13:18.125Z,2.79
2018-10-21T05:14:18.109Z,2.79
2018-10-21T05:15:18.284Z,2.79
2018-10-21T05:16:18.123Z,2.80
2018-10-21T05:17:18.080Z,2.80
2018-10-21T05:18:18.068Z,2.79
2018-10-21T05:19:18.058Z,2.77
2018-10-21T05:20:18.048Z,2.79
2018-10-21T05:21:18.035Z,2.80
2018-10-21T05:22:18.130Z,2.81
2018-10-21T05:23:18.014Z,2.87
2018-10-21T05:24:18.006Z,2.84
2018-10-21T05:25:17.994Z,2.84
2018-10-21T05:26:17.980Z,2.87
2018-10-21T05:27:17.970Z,2.83
2018-10-21T05:28:17.979Z,2.80
2018-10-21T05:29:17.951Z,2.79
2018-10-21T05:30:17.939Z,2.77
2018-10-21T05:31:17.926Z,2.77
2018-10-21T05:32:17.917Z,2.76
2018-10-21T05:33:17.909Z,2.77
2018-10-21T05:34:17.902Z,2.73
2018-10-21T05:35:17.886Z,2.74
2018-10-21T05:36:17.873Z,2.69
2018-10-21T05:37:17.863Z,2.68
2018-10-21T05:38:17.854Z,2.65
2018-10-21T05:39:17.844Z,2.64
2018-10-21T05:40:17.905Z,2.62
2018-10-21T05:41:17.823Z,2.64
2018-10-21T05:42:17.810Z,2.68
2018-10-21T05:43:17.801Z,2.68
2018-10-21T05:44:17.788Z,2.69
2018-10-21T05:45:17.779Z,2.73
2018-10-21T05:46:17.772Z,2.65
2018-10-21T05:47:17.794Z,2.64
2018-10-21T05:48:17.745Z,2.58
2018-10-21T05:49:17.735Z,2.55
2018-10-21T05:50:17.728Z,2.52
2018-10-21T05:51:17.715Z,2.52
2018-10-21T05:52:17.704Z,2.52
2018-10-21T05:53:17.691Z,2.50
2018-10-21T05:54:17.680Z,2.52
2018-10-21T05:55:17.669Z,2.52
2018-10-21T05:56:17.662Z,2.49
2018-10-21T05:57:17.647Z,2.49
2018-10-21T05:58:17.692Z,2.54
2018-10-21T05:59:17.631Z,2.54
2018-10-21T06:00:17.617Z,2.52
2018-10-21T06:01:17.606Z,2.50
2018-10-21T06:02:17.593Z,2.54
2018-10-21T06:03:17.584Z,2.54
2018-10-21T06:04:17.676Z,2.55
2018-10-21T06:05:17.561Z,2.52
2018-10-21T06:06:17.551Z,2.55
2018-10-21T06:07:17.541Z,2.58
2018-10-21T06:08:17.531Z,2.61
2018-10-21T06:09:17.527Z,2.60
2018-10-21T06:10:17.605Z,2.57
2018-10-21T06:11:17.498Z,2.60
2018-10-21T06:12:17.487Z,2.58
2018-10-21T06:13:17.477Z,2.58
2018-10-21T06:14:17.466Z,2.57
2018-10-21T06:15:17.455Z,2.55
2018-10-21T06:16:17.548Z,2.54
2018-10-21T06:17:17.435Z,2.52
2018-10-21T06:18:17.425Z,2.52
2018-10-21T06:19:17.412Z,2.54
2018-10-21T06:20:17.399Z,2.54
2018-10-21T06:21:17.389Z,2.54
2018-10-21T06:22:17.430Z,2.55
2018-10-21T06:23:17.369Z,2.55
2018-10-21T06:24:17.360Z,2.54
2018-10-21T06:25:17.346Z,2.52
2018-10-21T06:26:17.336Z,2.50
2018-10-21T06:27:17.325Z,2.47
2018-10-21T06:28:17.314Z,2.47
2018-10-21T06:29:17.306Z,2.49
2018-10-21T06:30:17.293Z,2.50
2018-10-21T06:31:17.282Z,2.52
2018-10-21T06:32:17.276Z,2.54
2018-10-21T06:33:17.348Z,2.55
2018-10-21T06:34:17.250Z,2.60
2018-10-21T06:35:17.240Z,2.64
2018-10-21T06:36:17.232Z,2.71
2018-10-21T06:37:17.217Z,2.76
2018-10-21T06:38:17.207Z,2.80
2018-10-21T06:39:17.355Z,2.81
2018-10-21T06:40:17.186Z,2.87
2018-10-21T06:41:17.174Z,2.87
2018-10-21T06:42:17.167Z,2.92
2018-10-21T06:43:17.154Z,2.94
2018-10-21T06:44:17.143Z,2.98
2018-10-21T06:45:17.263Z,2.97
2018-10-21T06:46:17.122Z,2.99
2018-10-21T06:47:17.111Z,3.01
2018-10-21T06:48:17.119Z,3.01
2018-10-21T06:49:17.088Z,2.99
2018-10-21T06:50:17.125Z,2.99
2018-10-21T06:51:17.187Z,3.01
2018-10-21T06:52:17.057Z,3.05
2018-10-21T06:53:17.044Z,3.10
2018-10-21T06:54:17.033Z,3.15
2018-10-21T06:55:17.023Z,3.16
2018-10-21T06:56:17.086Z,3.17
2018-10-21T06:57:17.144Z,3.13
2018-10-21T06:58:16.991Z,3.13
2018-10-21T06:59:16.980Z,3.17
2018-10-21T07:00:16.969Z,3.15
2018-10-21T07:01:16.956Z,3.19
2018-10-21T07:02:16.946Z,3.17
2018-10-21T07:03:16.937Z,3.19
2018-10-21T07:04:16.954Z,3.20
2018-10-21T07:05:16.917Z,3.26
2018-10-21T07:06:16.914Z,3.28
2018-10-21T07:07:16.890Z,3.34
2018-10-21T07:08:16.886Z,3.37
2018-10-21T07:09:16.871Z,3.38
2018-10-21T07:10:16.935Z,3.41
2018-10-21T07:11:16.851Z,3.40
2018-10-21T07:12:16.837Z,3.41
2018-10-21T07:13:16.830Z,3.43
2018-10-21T07:14:16.816Z,3.43
2018-10-21T07:15:16.873Z,3.43
2018-10-21T07:16:16.978Z,3.44
2018-10-21T07:17:16.784Z,3.43
2018-10-21T07:18:16.777Z,3.48
2018-10-21T07:19:16.763Z,3.51
2018-10-21T07:20:16.755Z,3.56
2018-10-21T07:21:16.751Z,3.61
2018-10-21T07:22:16.789Z,3.62
2018-10-21T07:23:16.719Z,3.58
2018-10-21T07:24:16.710Z,3.62
2018-10-21T07:25:16.700Z,3.66
2018-10-21T07:26:16.688Z,3.70
2018-10-21T07:27:16.676Z,3.74
2018-10-21T07:28:16.823Z,3.79
2018-10-21T07:29:16.656Z,3.81
2018-10-21T07:30:16.645Z,3.83
2018-10-21T07:31:16.631Z,3.83
2018-10-21T07:32:16.624Z,3.88
2018-10-21T07:33:16.611Z,3.85
2018-10-21T07:34:16.668Z,3.87
2018-10-21T07:35:16.642Z,3.87
2018-10-21T07:36:16.611Z,3.89
2018-10-21T07:37:16.567Z,3.95
2018-10-21T07:38:16.557Z,3.97
2018-10-21T07:39:16.551Z,3.94
2018-10-21T07:40:16.632Z,3.97
2018-10-21T07:41:16.528Z,4.01
2018-10-21T07:42:16.514Z,3.99
2018-10-21T07:43:16.505Z,3.99
2018-10-21T07:44:16.501Z,3.99
2018-10-21T07:45:16.483Z,3.97
2018-10-21T07:46:16.551Z,3.99
2018-10-21T07:47:16.470Z,4.07
2018-10-21T07:48:16.461Z,4.05
2018-10-21T07:49:16.513Z,4.13
2018-10-21T07:50:16.428Z,4.14
2018-10-21T07:51:16.416Z,4.17
2018-10-21T07:52:16.471Z,4.16
2018-10-21T07:53:16.399Z,4.18
2018-10-21T07:54:16.392Z,4.18
2018-10-21T07:55:16.491Z,4.20
2018-10-21T07:56:16.365Z,4.20
2018-10-21T07:57:16.354Z,4.17
2018-10-21T07:58:16.469Z,4.16
2018-10-21T07:59:16.329Z,4.21
2018-10-21T08:00:16.321Z,4.34
2018-10-21T08:01:16.337Z,4.39
2018-10-21T08:02:16.301Z,4.47
2018-10-21T08:03:16.287Z,4.49
2018-10-21T08:04:16.335Z,4.49
2018-10-21T08:05:16.272Z,4.54
2018-10-21T08:06:16.254Z,4.57
2018-10-21T08:07:16.244Z,4.62
2018-10-21T08:08:16.234Z,4.67
2018-10-21T08:09:16.224Z,4.67
2018-10-21T08:10:16.338Z,4.65
2018-10-21T08:11:16.202Z,4.68
2018-10-21T08:12:16.190Z,4.71
2018-10-21T08:13:16.180Z,4.72
2018-10-21T08:14:16.172Z,4.74
2018-10-21T08:15:16.271Z,4.79
2018-10-21T08:16:16.319Z,4.83
2018-10-21T08:17:16.138Z,4.87
2018-10-21T08:18:16.126Z,4.93
2018-10-21T08:19:16.114Z,4.95
2018-10-21T08:20:16.103Z,4.98
2018-10-21T08:21:16.110Z,5.03
2018-10-21T08:22:16.192Z,5.07
2018-10-21T08:23:16.069Z,5.10
2018-10-21T08:24:16.065Z,5.18
2018-10-21T08:25:16.051Z,5.25
2018-10-21T08:26:16.040Z,5.32
2018-10-21T08:27:16.087Z,5.36
2018-10-21T08:28:16.087Z,5.40
2018-10-21T08:29:16.006Z,5.44
2018-10-21T08:30:15.994Z,5.47
2018-10-21T08:31:15.986Z,5.52
2018-10-21T08:32:15.974Z,5.56
2018-10-21T08:33:15.965Z,5.62
2018-10-21T08:34:15.986Z,5.73
2018-10-21T08:35:15.953Z,5.80
2018-10-21T08:36:15.931Z,5.85
2018-10-21T08:37:15.919Z,5.93
2018-10-21T08:38:15.909Z,5.99
2018-10-21T08:39:15.898Z,6.06
2018-10-21T08:40:15.986Z,6.11
2018-10-21T08:41:15.877Z,6.11
2018-10-21T08:42:15.864Z,6.16
2018-10-21T08:43:15.856Z,6.20
2018-10-21T08:44:15.843Z,6.23
2018-10-21T08:45:15.832Z,6.29
2018-10-21T08:46:15.988Z,6.37
2018-10-21T08:47:15.812Z,6.41
2018-10-21T08:48:15.799Z,6.44
2018-10-21T08:49:15.879Z,6.49
2018-10-21T08:50:15.780Z,6.56
2018-10-21T08:51:15.766Z,6.59
2018-10-21T08:52:15.801Z,6.57
2018-10-21T08:53:15.747Z,6.63
2018-10-21T08:54:15.732Z,6.71
2018-10-21T08:55:15.871Z,6.80
2018-10-21T08:56:15.717Z,6.86
2018-10-21T08:57:15.705Z,6.90
2018-10-21T08:58:15.800Z,6.99
2018-10-21T08:59:15.681Z,7.04
2018-10-21T09:00:15.670Z,7.11
2018-10-21T09:01:15.798Z,7.18
2018-10-21T09:02:15.648Z,7.24
2018-10-21T09:03:15.636Z,7.24
2018-10-21T09:04:15.799Z,7.32
2018-10-21T09:05:15.623Z,7.36
2018-10-21T09:06:15.605Z,7.45
2018-10-21T09:07:15.739Z,7.47
2018-10-21T09:08:15.584Z,7.54
2018-10-21T09:09:15.572Z,7.60
2018-10-21T09:10:15.742Z,7.68
2018-10-21T09:11:15.552Z,7.75
2018-10-21T09:12:15.540Z,7.83
2018-10-21T09:13:15.603Z,7.88
2018-10-21T09:14:15.519Z,7.93
2018-10-21T09:15:15.576Z,7.98
2018-10-21T09:16:15.675Z,8.01
2018-10-21T09:17:15.485Z,8.03
2018-10-21T09:18:15.473Z,8.09
2018-10-21T09:19:15.553Z,8.16
2018-10-21T09:20:15.451Z,8.19
2018-10-21T09:21:15.439Z,8.24
2018-10-21T09:22:15.480Z,8.35
2018-10-21T09:23:15.422Z,8.43
2018-10-21T09:24:15.413Z,8.46
2018-10-21T09:25:15.446Z,8.47
2018-10-21T09:26:15.388Z,8.52
2018-10-21T09:27:15.374Z,8.58
2018-10-21T09:28:15.539Z,8.63
2018-10-21T09:29:15.353Z,8.71
2018-10-21T09:30:15.344Z,8.78
2018-10-21T09:31:15.387Z,8.83
2018-10-21T09:32:15.323Z,8.89
2018-10-21T09:33:15.355Z,9.01
2018-10-21T09:34:15.395Z,9.11
2018-10-21T09:35:15.289Z,9.18
2018-10-21T09:36:15.283Z,9.21
2018-10-21T09:37:15.369Z,9.30
2018-10-21T09:38:15.258Z,9.39
2018-10-21T09:39:15.249Z,9.49
2018-10-21T09:40:15.279Z,9.54
2018-10-21T09:41:15.224Z,9.58
2018-10-21T09:42:15.313Z,9.66
2018-10-21T09:43:15.374Z,9.70
2018-10-21T09:44:15.193Z,9.76
2018-10-21T09:45:15.179Z,9.85
2018-10-21T09:46:15.251Z,9.91
2018-10-21T09:47:15.158Z,9.96
2018-10-21T09:48:15.148Z,10.02
2018-10-21T09:49:15.219Z,10.06
2018-10-21T09:50:15.128Z,10.09
2018-10-21T09:51:15.114Z,10.10
2018-10-21T09:52:15.183Z,10.14
2018-10-21T09:53:15.095Z,10.20
2018-10-21T09:54:15.084Z,10.25
2018-10-21T09:55:15.158Z,10.26
2018-10-21T09:56:15.062Z,10.26
2018-10-21T09:57:15.051Z,10.31
2018-10-21T09:58:15.144Z,10.34
2018-10-21T09:59:15.073Z,10.39
2018-10-21T10:00:15.020Z,10.47
2018-10-21T10:01:15.100Z,10.47
2018-10-21T10:02:14.996Z,10.49
2018-10-21T10:03:14.985Z,10.53
2018-10-21T10:04:15.026Z,10.56
2018-10-21T10:05:15.013Z,10.56
2018-10-21T10:06:14.952Z,10.53
2018-10-21T10:07:15.181Z,10.54
2018-10-21T10:08:14.933Z,10.64
2018-10-21T10:09:14.919Z,10.69
2018-10-21T10:10:14.969Z,10.72
2018-10-21T10:11:14.898Z,10.74
2018-10-21T10:12:14.888Z,10.74
2018-10-21T10:13:14.996Z,10.77
2018-10-21T10:14:14.866Z,10.82
2018-10-21T10:15:14.854Z,10.90
2018-10-21T10:16:14.971Z,10.98
2018-10-21T10:17:14.837Z,11.05
2018-10-21T10:18:14.821Z,11.11
2018-10-21T10:19:14.885Z,11.21
2018-10-21T10:20:14.802Z,11.31
2018-10-21T10:21:14.789Z,11.42
2018-10-21T10:22:14.878Z,11.49
2018-10-21T10:23:14.831Z,11.60
2018-10-21T10:24:14.757Z,11.72
2018-10-21T10:25:14.841Z,11.84
2018-10-21T10:26:14.735Z,11.88
2018-10-21T10:27:14.724Z,11.88
2018-10-21T10:28:14.821Z,11.87
2018-10-21T10:29:14.701Z,11.90
2018-10-21T10:30:14.710Z,11.96
2018-10-21T10:31:14.762Z,12.00
2018-10-21T10:32:14.669Z,12.07
2018-10-21T10:33:14.658Z,12.18
2018-10-21T10:34:14.694Z,12.28
2018-10-21T10:35:14.637Z,12.33
2018-10-21T10:36:14.726Z,12.29
2018-10-21T10:37:14.692Z,12.29
2018-10-21T10:38:14.604Z,12.29
2018-10-21T10:39:14.592Z,12.33
2018-10-21T10:40:14.756Z,12.39
2018-10-21T10:41:14.573Z,12.45
2018-10-21T10:42:14.607Z,12.53
2018-10-21T10:43:14.587Z,12.60
2018-10-21T10:44:14.539Z,12.67
2018-10-21T10:45:14.528Z,12.69
2018-10-21T10:46:14.598Z,12.66
2018-10-21T10:47:14.506Z,12.63
2018-10-21T10:48:14.499Z,12.61
2018-10-21T10:49:14.667Z,12.66
2018-10-21T10:50:14.480Z,12.74
2018-10-21T10:51:14.469Z,12.79
2018-10-21T10:52:14.529Z,12.84
2018-10-21T10:53:14.445Z,12.88
2018-10-21T10:54:14.437Z,12.96
2018-10-21T10:55:14.537Z,13.06
2018-10-21T10:56:14.411Z,13.17
2018-10-21T10:57:14.401Z,13.31
2018-10-21T10:58:14.433Z,13.43
2018-10-21T10:59:14.378Z,13.49
2018-10-21T11:00:14.439Z,13.53
2018-10-21T11:01:14.432Z,13.64
2018-10-21T11:02:14.347Z,13.70
2018-10-21T11:03:14.334Z,13.74
2018-10-21T11:04:14.440Z,13.83
2018-10-21T11:05:14.324Z,13.92
2018-10-21T11:06:14.319Z,14.00
2018-10-21T11:07:14.357Z,14.09
2018-10-21T11:08:14.282Z,14.17
2018-10-21T11:09:14.270Z,14.21
2018-10-21T11:10:14.308Z,14.30
2018-10-21T11:11:14.250Z,14.34
2018-10-21T11:12:14.240Z,14.41
2018-10-21T11:13:14.288Z,14.48
2018-10-21T11:14:14.216Z,14.57
2018-10-21T11:15:14.208Z,14.63
2018-10-21T11:16:14.251Z,14.67
2018-10-21T11:17:14.185Z,14.72
2018-10-21T11:18:14.174Z,14.74
2018-10-21T11:19:14.241Z,14.77
2018-10-21T11:20:14.152Z,14.71
2018-10-21T11:21:14.143Z,14.67
2018-10-21T11:22:14.161Z,14.61
2018-10-21T11:23:14.121Z,14.61
2018-10-21T11:24:14.108Z,14.64
2018-10-21T11:25:14.166Z,14.72
2018-10-21T11:26:14.088Z,14.78
2018-10-21T11:27:14.084Z,14.79
2018-10-21T11:28:14.199Z,14.79
2018-10-21T11:29:14.059Z,14.84
2018-10-21T11:30:14.043Z,14.84
2018-10-21T11:31:14.119Z,14.89
2018-10-21T11:32:14.021Z,14.97
2018-10-21T11:33:14.013Z,15.08
2018-10-21T11:34:14.095Z,15.14
2018-10-21T11:35:13.992Z,15.11
2018-10-21T11:36:13.980Z,14.96
2018-10-21T11:37:14.107Z,14.90
2018-10-21T11:38:13.956Z,14.92
2018-10-21T11:39:13.946Z,15.03
2018-10-21T11:40:13.992Z,15.12
2018-10-21T11:41:13.927Z,15.06
2018-10-21T11:42:13.915Z,14.97
2018-10-21T11:43:13.991Z,14.94
2018-10-21T11:44:13.897Z,14.86
2018-10-21T11:45:13.885Z,14.89
2018-10-21T11:46:13.883Z,14.96
2018-10-21T11:47:13.862Z,15.00
2018-10-21T11:48:13.851Z,15.04
2018-10-21T11:49:14.016Z,15.11
2018-10-21T11:50:13.828Z,15.19
2018-10-21T11:51:13.816Z,15.27
2018-10-21T11:52:13.941Z,15.39
2018-10-21T11:53:13.797Z,15.43
2018-10-21T11:54:13.787Z,15.49
2018-10-21T11:55:13.848Z,15.39
2018-10-21T11:56:13.765Z,15.33
2018-10-21T11:57:13.755Z,15.34
2018-10-21T11:58:13.844Z,15.34
2018-10-21T11:59:13.731Z,15.29
2018-10-21T12:00:13.721Z,15.12
2018-10-21T12:01:13.839Z,15.15
2018-10-21T12:02:13.698Z,15.15
2018-10-21T12:03:13.690Z,15.19
2018-10-21T12:04:13.723Z,15.26
2018-10-21T12:05:13.670Z,15.27
2018-10-21T12:06:13.657Z,15.32
2018-10-21T12:07:13.686Z,15.39
2018-10-21T12:08:13.636Z,15.49
2018-10-21T12:09:13.627Z,15.59
2018-10-21T12:10:13.702Z,15.62
2018-10-21T12:11:13.603Z,15.64
2018-10-21T12:12:13.591Z,15.64
2018-10-21T12:13:13.752Z,15.53
2018-10-21T12:14:13.569Z,15.49
2018-10-21T12:15:13.559Z,15.48
2018-10-21T12:16:13.664Z,15.48
2018-10-21T12:17:13.539Z,15.45
2018-10-21T12:18:13.529Z,15.34
2018-10-21T12:19:13.650Z,15.29
2018-10-21T12:20:13.505Z,15.30
2018-10-21T12:21:13.494Z,15.26
2018-10-21T12:22:13.574Z,15.21
2018-10-21T12:23:13.620Z,15.12
2018-10-21T12:24:13.462Z,14.94
2018-10-21T12:25:13.608Z,14.92
2018-10-21T12:26:13.441Z,14.99
2018-10-21T12:27:13.432Z,15.18
2018-10-21T12:28:13.544Z,15.33
2018-10-21T12:29:13.539Z,15.42
2018-10-21T12:30:13.399Z,15.51
2018-10-21T12:31:13.454Z,15.52
2018-10-21T12:32:13.376Z,15.58
2018-10-21T12:33:13.367Z,15.67
2018-10-21T12:34:13.439Z,15.60
2018-10-21T12:35:13.373Z,15.59
2018-10-21T12:36:13.336Z,15.64
2018-10-21T12:37:13.403Z,15.68
2018-10-21T12:38:13.313Z,15.59
2018-10-21T12:39:13.301Z,15.48
2018-10-21T12:40:13.407Z,15.45
2018-10-21T12:41:13.347Z,15.40
2018-10-21T12:42:13.269Z,15.33
2018-10-21T12:43:13.341Z,15.34
2018-10-21T12:44:13.247Z,15.36
2018-10-21T12:45:13.285Z,15.06
2018-10-21T12:46:13.423Z,14.84
2018-10-21T12:47:13.296Z,14.94
2018-10-21T12:48:13.204Z,15.19
2018-10-21T12:49:13.253Z,15.34
2018-10-21T12:50:13.184Z,15.26
2018-10-21T12:51:13.172Z,15.40
2018-10-21T12:52:13.214Z,15.55
2018-10-21T12:53:13.197Z,15.62
2018-10-21T12:54:13.263Z,15.66
2018-10-21T12:55:13.172Z,15.68
2018-10-21T12:56:13.120Z,15.68
2018-10-21T12:57:13.110Z,15.56
2018-10-21T12:58:13.174Z,15.59
2018-10-21T12:59:13.086Z,15.58
2018-10-21T13:00:13.087Z,15.43
2018-10-21T13:01:13.169Z,15.36
2018-10-21T13:02:13.123Z,15.39
2018-10-21T13:03:13.044Z,15.42
2018-10-21T13:04:13.156Z,15.32
2018-10-21T13:05:13.023Z,15.30
2018-10-21T13:06:13.013Z,15.34
2018-10-21T13:07:13.016Z,15.43
2018-10-21T13:08:12.989Z,15.53
2018-10-21T13:09:12.981Z,15.56
2018-10-21T13:10:13.024Z,15.56
2018-10-21T13:11:12.956Z,15.52